Superfast Baleares — EBXD — position and weather

sailwx.info

Track history (hours):
 
Tides and Currents Weather Stations Pressure Air Temp Water Temp Dewpoint Dewpoint Depression Visibility Wind Speed Wind Dir Waves Ship Positions

Superfast Baleares

Last reported at 2016-Aug-31 19:20 UTC. Time now 2016-Aug-31 23:28 UTC.
Position N 52°59' E 001°45'.

Length 210 m; draft 6.4 m.

Type: Ship (hazmat cat A). MMSI: 225405000.

Date/timePositionNaut miles runAvg speedWind from/ knotsBaromVisibWave heightAir tempDewpointWater temp
2016-Aug-31 19:20N 52°59' E 001°45'7014.7
2016-Aug-31 14:33N 53°35' E 000°04'10 9.9
2016-Aug-31 13:33N 53°38' W 000°12'0 0.0
2016-Aug-31 12:33N 53°38' W 000°12'0 0.0
2016-Aug-31 11:32N 53°38' W 000°12'0 0.0
2016-Aug-31 10:33N 53°38' W 000°12'0 0.0
2016-Aug-31 09:33N 53°38' W 000°12'0 0.0
2016-Aug-31 08:34N 53°38' W 000°12'0 0.0
2016-Aug-31 07:34N 53°38' W 000°12'0 0.0
2016-Aug-31 06:33N 53°38' W 000°12'0 0.0
2016-Aug-31 05:33N 53°38' W 000°12'0 0.0
2016-Aug-31 04:33N 53°38' W 000°12'0 0.0
2016-Aug-31 03:33N 53°38' W 000°12'0 0.3
2016-Aug-31 02:33N 53°38' W 000°12'1111.2
2016-Aug-31 01:33N 53°34' E 000°06'10 9.6
2016-Aug-31 00:33N 53°33' E 000°22'2117.9
2016-Aug-30 23:23N 53°23' E 000°53'2220.0
2016-Aug-30 22:16N 53°10' E 001°24'1318.9
2016-Aug-30 21:33N 53°02' E 001°41'4317.8
2016-Aug-30 19:09N 52°34' E 002°34'1317.9
2016-Aug-30 18:25N 52°26' E 002°52'1918.1
2016-Aug-30 17:21N 52°14' E 003°15'1518.7
2016-Aug-30 16:33N 52°07' E 003°38'1514.7
2016-Aug-30 15:34N 52°01' E 003°59'15 2.1
2016-Aug-30 08:07N 51°54' E 004°22'0 0.0
2016-Aug-30 07:33N 51°54' E 004°22'0 0.0
2016-Aug-30 06:33N 51°54' E 004°22'0 0.0
2016-Aug-30 05:33N 51°54' E 004°22'0 0.0
2016-Aug-30 04:33N 51°54' E 004°22'0 0.0
2016-Aug-30 03:33N 51°54' E 004°22'0 0.0
2016-Aug-30 02:33N 51°54' E 004°22'0 0.0
2016-Aug-30 01:33N 51°54' E 004°22'0 0.0
2016-Aug-30 00:33N 51°54' E 004°22'0 0.0
2016-Aug-29 23:33N 51°54' E 004°22'0 0.0
2016-Aug-29 22:33N 51°54' E 004°22'3 2.5
2016-Aug-29 21:33N 51°54' E 004°18'1313.3
2016-Aug-29 20:34N 52°00' E 003°59'33 7.6
2016-Aug-29 16:17N 51°37' E 003°22'1013.9
2016-Aug-29 15:33N 51°28' E 003°31'1110.5
2016-Aug-29 14:33N 51°22' E 003°45'1111.0
2016-Aug-29 13:33N 51°26' E 004°01'10 9.5
2016-Aug-29 12:33N 51°21' E 004°14'2 2.1
2016-Aug-29 11:33N 51°21' E 004°18'3 2.9
2016-Aug-29 10:34N 51°18' E 004°20'2 2.5
2016-Aug-29 09:34N 51°17' E 004°23'0 0.0
2016-Aug-29 08:33N 51°17' E 004°23'0 0.0
2016-Aug-29 07:33N 51°17' E 004°23'0 0.0
2016-Aug-29 06:33N 51°17' E 004°23'0 0.0
2016-Aug-29 05:33N 51°17' E 004°23'0 0.0
2016-Aug-29 04:33N 51°17' E 004°23'0 0.0
2016-Aug-29 03:34N 51°17' E 004°23'0 0.0
2016-Aug-29 02:34N 51°17' E 004°23'0 0.0
2016-Aug-29 01:33N 51°17' E 004°23'0 0.0
2016-Aug-29 00:33N 51°17' E 004°23'0 0.0
2016-Aug-28 23:33N 51°17' E 004°23'0 0.0
2016-Aug-28 22:33N 51°17' E 004°23'0 0.0
2016-Aug-28 21:33N 51°17' E 004°23'0 0.0
2016-Aug-28 20:33N 51°17' E 004°23'0 0.0
2016-Aug-28 19:33N 51°17' E 004°23'0 0.0
2016-Aug-28 18:33N 51°17' E 004°23'0 0.0
2016-Aug-28 17:33N 51°17' E 004°23'0 0.0
2016-Aug-28 16:33N 51°17' E 004°23'0 0.0
2016-Aug-28 15:34N 51°17' E 004°23'0 0.0
2016-Aug-28 14:33N 51°17' E 004°23'0 0.0
2016-Aug-28 13:33N 51°17' E 004°23'0 0.0
2016-Aug-28 12:33N 51°17' E 004°23'0 0.0
2016-Aug-28 11:33N 51°17' E 004°23'0 0.0
2016-Aug-28 10:33N 51°17' E 004°23'0 0.0
2016-Aug-28 09:33N 51°17' E 004°23'0 0.0
2016-Aug-28 08:33N 51°17' E 004°23'0 0.0
2016-Aug-28 07:33N 51°17' E 004°23'0 0.0
2016-Aug-28 06:33N 51°17' E 004°23'0 0.0
2016-Aug-28 05:33N 51°17' E 004°23'0 0.0
2016-Aug-28 04:33N 51°17' E 004°23'0 0.0
2016-Aug-28 03:33N 51°17' E 004°23'0 0.0
2016-Aug-28 02:33N 51°17' E 004°23'0 0.0
2016-Aug-28 01:33N 51°17' E 004°23'0 0.0
2016-Aug-28 00:33N 51°17' E 004°23'0 0.0
2016-Aug-27 23:33N 51°17' E 004°23'0 0.0
2016-Aug-27 22:33N 51°17' E 004°23'0 0.0
2016-Aug-27 21:33N 51°17' E 004°23'0 0.0
2016-Aug-27 20:32N 51°17' E 004°23'0 0.0
2016-Aug-27 19:33N 51°17' E 004°23'0 0.0
2016-Aug-27 18:33N 51°17' E 004°23'0 0.0
2016-Aug-27 17:33N 51°17' E 004°23'0 0.0
2016-Aug-27 16:33N 51°17' E 004°23'0 0.0
2016-Aug-27 15:33N 51°17' E 004°23'0 0.0
2016-Aug-27 14:33N 51°17' E 004°23'0 0.0
2016-Aug-27 13:33N 51°17' E 004°23'0 0.0
2016-Aug-27 12:33N 51°17' E 004°23'0 0.0
2016-Aug-27 11:33N 51°17' E 004°23'0 0.0
2016-Aug-27 10:33N 51°17' E 004°23'0 0.0
2016-Aug-27 09:33N 51°17' E 004°23'0 0.0
2016-Aug-27 08:33N 51°17' E 004°23'0 0.0
2016-Aug-27 07:33N 51°17' E 004°23'0 0.0
2016-Aug-27 06:33N 51°17' E 004°23'2 0.9
2016-Aug-27 04:34N 51°17' E 004°20'3 3.3
2016-Aug-27 03:34N 51°19' E 004°16'1010.3
2016-Aug-27 02:33N 51°24' E 004°02'1111.1
2016-Aug-27 01:33N 51°22' E 003°45'1110.9
2016-Aug-27 00:33N 51°29' E 003°30'1616.4
2016-Aug-26 23:33N 51°42' E 003°16'1111.3
2016-Aug-26 22:34N 51°53' E 003°18'1918.9
2016-Aug-26 21:33N 52°12' E 003°10'2120.6
2016-Aug-26 20:33N 52°27' E 002°48'4018.8
2016-Aug-26 18:24N 52°54' E 001°58'1416.2
2016-Aug-26 17:33N 53°02' E 001°39'6520.9
2016-Aug-26 14:27N 53°34' E 000°05'0 0.1
2016-Aug-26 13:33N 53°34' E 000°05'1110.9
2016-Aug-26 12:33N 53°38' W 000°12'0 0.0
2016-Aug-26 11:33N 53°38' W 000°12'0 0.0
2016-Aug-26 10:33N 53°38' W 000°12'0 0.0
2016-Aug-26 09:34N 53°38' W 000°12'0 0.0
2016-Aug-26 08:33N 53°38' W 000°12'0 0.0
2016-Aug-26 07:34N 53°38' W 000°12'0 0.0
2016-Aug-26 06:34N 53°38' W 000°12'0 0.0
2016-Aug-26 04:33N 53°38' W 000°12'0 0.0
2016-Aug-26 03:33N 53°38' W 000°12'0 0.1
2016-Aug-26 02:33N 53°38' W 000°12'6 6.3
2016-Aug-26 01:33N 53°36' W 000°02'6114.7
2016-Aug-25 21:25N 53°08' E 001°28'1720.2
2016-Aug-25 20:33N 52°57' E 001°51'9818.8
2016-Aug-25 15:21N 51°60' E 004°02'5 0.4
2016-Aug-25 03:30N 51°58' E 004°08'9812.3
2016-Aug-24 19:32N 52°54' E 001°56'1212.6
2016-Aug-24 18:33N 53°01' E 001°40'6312.7
2016-Aug-24 13:33N 53°33' E 000°08'1312.5
2016-Aug-24 12:33N 53°38' W 000°12'0 0.1
2016-Aug-24 11:33N 53°38' W 000°12'0 0.0
2016-Aug-24 10:33N 53°38' W 000°12'0 0.0
2016-Aug-24 09:33N 53°38' W 000°12'0 0.0
2016-Aug-24 08:33N 53°38' W 000°12'0 0.0
2016-Aug-24 07:34N 53°38' W 000°12'0 0.0
2016-Aug-24 06:33N 53°38' W 000°12'0 0.0
2016-Aug-24 04:33N 53°38' W 000°12'0 0.0
2016-Aug-24 03:34N 53°38' W 000°12'0 0.2
2016-Aug-24 02:33N 53°38' W 000°12'5 5.4
2016-Aug-24 01:33N 53°37' W 000°03'1312.8
2016-Aug-24 00:33N 53°33' E 000°18'3215.6
2016-Aug-23 22:31N 53°18' E 001°05'1515.0
2016-Aug-23 21:30N 53°09' E 001°25'1415.4
2016-Aug-23 20:33N 52°60' E 001°44'10319.2
2016-Aug-23 15:13N 51°60' E 004°01'7 0.6
2016-Aug-23 04:33N 51°57' E 004°11'17410.8
2016-Aug-22 12:33N 53°33' E 000°11'1414.1
2016-Aug-22 11:33N 53°38' W 000°10'1 0.9
2016-Aug-22 10:33N 53°38' W 000°12'0 0.0
2016-Aug-22 09:33N 53°38' W 000°12'0 0.0
2016-Aug-22 08:33N 53°38' W 000°12'0 0.0
2016-Aug-22 07:34N 53°38' W 000°12'0 0.0
2016-Aug-22 06:33N 53°38' W 000°12'0 0.0
2016-Aug-22 05:33N 53°38' W 000°12'0 0.0
2016-Aug-22 04:33N 53°38' W 000°12'0 0.0
2016-Aug-22 03:33N 53°38' W 000°12'0 0.0
2016-Aug-22 02:33N 53°38' W 000°12'0 0.0
2016-Aug-22 01:33N 53°38' W 000°12'0 0.0
2016-Aug-22 00:33N 53°38' W 000°12'0 0.0
2016-Aug-21 23:33N 53°38' W 000°12'0 0.3
2016-Aug-21 22:33N 53°38' W 000°11'10 9.6
2016-Aug-21 21:33N 53°35' E 000°04'  
Track history (hours):
 
Tides and Currents Weather Stations Pressure Air Temp Water Temp Dewpoint Dewpoint Depression Visibility Wind Speed Wind Dir Waves Ship Positions

Superfast Baleares

Last reported at 2016-Aug-31 19:20 UTC. Time now 2016-Aug-31 23:28 UTC.
Position N 52°59' E 001°45'.

Length 210 m; draft 6.4 m.

Type: Ship (hazmat cat A). MMSI: 225405000.

Date/timePositionNaut miles runAvg speedWind from/ knotsBaromVisibWave heightAir tempDewpointWater temp
2016-Aug-31 19:20N 52°59' E 001°45'7014.7
2016-Aug-31 14:33N 53°35' E 000°04'10 9.9
2016-Aug-31 13:33N 53°38' W 000°12'0 0.0
2016-Aug-31 12:33N 53°38' W 000°12'0 0.0
2016-Aug-31 11:32N 53°38' W 000°12'0 0.0
2016-Aug-31 10:33N 53°38' W 000°12'0 0.0
2016-Aug-31 09:33N 53°38' W 000°12'0 0.0
2016-Aug-31 08:34N 53°38' W 000°12'0 0.0
2016-Aug-31 07:34N 53°38' W 000°12'0 0.0
2016-Aug-31 06:33N 53°38' W 000°12'0 0.0
2016-Aug-31 05:33N 53°38' W 000°12'0 0.0
2016-Aug-31 04:33N 53°38' W 000°12'0 0.0
2016-Aug-31 03:33N 53°38' W 000°12'0 0.3
2016-Aug-31 02:33N 53°38' W 000°12'1111.2
2016-Aug-31 01:33N 53°34' E 000°06'10 9.6
2016-Aug-31 00:33N 53°33' E 000°22'2117.9
2016-Aug-30 23:23N 53°23' E 000°53'2220.0
2016-Aug-30 22:16N 53°10' E 001°24'1318.9
2016-Aug-30 21:33N 53°02' E 001°41'4317.8
2016-Aug-30 19:09N 52°34' E 002°34'1317.9
2016-Aug-30 18:25N 52°26' E 002°52'1918.1
2016-Aug-30 17:21N 52°14' E 003°15'1518.7
2016-Aug-30 16:33N 52°07' E 003°38'1514.7
2016-Aug-30 15:34N 52°01' E 003°59'15 2.1
2016-Aug-30 08:07N 51°54' E 004°22'0 0.0
2016-Aug-30 07:33N 51°54' E 004°22'0 0.0
2016-Aug-30 06:33N 51°54' E 004°22'0 0.0
2016-Aug-30 05:33N 51°54' E 004°22'0 0.0
2016-Aug-30 04:33N 51°54' E 004°22'0 0.0
2016-Aug-30 03:33N 51°54' E 004°22'0 0.0
2016-Aug-30 02:33N 51°54' E 004°22'0 0.0
2016-Aug-30 01:33N 51°54' E 004°22'0 0.0
2016-Aug-30 00:33N 51°54' E 004°22'0 0.0
2016-Aug-29 23:33N 51°54' E 004°22'0 0.0
2016-Aug-29 22:33N 51°54' E 004°22'3 2.5
2016-Aug-29 21:33N 51°54' E 004°18'1313.3
2016-Aug-29 20:34N 52°00' E 003°59'33 7.6
2016-Aug-29 16:17N 51°37' E 003°22'1013.9
2016-Aug-29 15:33N 51°28' E 003°31'1110.5
2016-Aug-29 14:33N 51°22' E 003°45'1111.0
2016-Aug-29 13:33N 51°26' E 004°01'10 9.5
2016-Aug-29 12:33N 51°21' E 004°14'2 2.1
2016-Aug-29 11:33N 51°21' E 004°18'3 2.9
2016-Aug-29 10:34N 51°18' E 004°20'2 2.5
2016-Aug-29 09:34N 51°17' E 004°23'0 0.0
2016-Aug-29 08:33N 51°17' E 004°23'0 0.0
2016-Aug-29 07:33N 51°17' E 004°23'0 0.0
2016-Aug-29 06:33N 51°17' E 004°23'0 0.0
2016-Aug-29 05:33N 51°17' E 004°23'0 0.0
2016-Aug-29 04:33N 51°17' E 004°23'0 0.0
2016-Aug-29 03:34N 51°17' E 004°23'0 0.0
2016-Aug-29 02:34N 51°17' E 004°23'0 0.0
2016-Aug-29 01:33N 51°17' E 004°23'0 0.0
2016-Aug-29 00:33N 51°17' E 004°23'0 0.0
2016-Aug-28 23:33N 51°17' E 004°23'0 0.0
2016-Aug-28 22:33N 51°17' E 004°23'0 0.0
2016-Aug-28 21:33N 51°17' E 004°23'0 0.0
2016-Aug-28 20:33N 51°17' E 004°23'0 0.0
2016-Aug-28 19:33N 51°17' E 004°23'0 0.0
2016-Aug-28 18:33N 51°17' E 004°23'0 0.0
2016-Aug-28 17:33N 51°17' E 004°23'0 0.0
2016-Aug-28 16:33N 51°17' E 004°23'0 0.0
2016-Aug-28 15:34N 51°17' E 004°23'0 0.0
2016-Aug-28 14:33N 51°17' E 004°23'0 0.0
2016-Aug-28 13:33N 51°17' E 004°23'0 0.0
2016-Aug-28 12:33N 51°17' E 004°23'0 0.0
2016-Aug-28 11:33N 51°17' E 004°23'0 0.0
2016-Aug-28 10:33N 51°17' E 004°23'0 0.0
2016-Aug-28 09:33N 51°17' E 004°23'0 0.0
2016-Aug-28 08:33N 51°17' E 004°23'0 0.0
2016-Aug-28 07:33N 51°17' E 004°23'0 0.0
2016-Aug-28 06:33N 51°17' E 004°23'0 0.0
2016-Aug-28 05:33N 51°17' E 004°23'0 0.0
2016-Aug-28 04:33N 51°17' E 004°23'0 0.0
2016-Aug-28 03:33N 51°17' E 004°23'0 0.0
2016-Aug-28 02:33N 51°17' E 004°23'0 0.0
2016-Aug-28 01:33N 51°17' E 004°23'0 0.0
2016-Aug-28 00:33N 51°17' E 004°23'0 0.0
2016-Aug-27 23:33N 51°17' E 004°23'0 0.0
2016-Aug-27 22:33N 51°17' E 004°23'0 0.0
2016-Aug-27 21:33N 51°17' E 004°23'0 0.0
2016-Aug-27 20:32N 51°17' E 004°23'0 0.0
2016-Aug-27 19:33N 51°17' E 004°23'0 0.0
2016-Aug-27 18:33N 51°17' E 004°23'0 0.0
2016-Aug-27 17:33N 51°17' E 004°23'0 0.0
2016-Aug-27 16:33N 51°17' E 004°23'0 0.0
2016-Aug-27 15:33N 51°17' E 004°23'0 0.0
2016-Aug-27 14:33N 51°17' E 004°23'0 0.0
2016-Aug-27 13:33N 51°17' E 004°23'0 0.0
2016-Aug-27 12:33N 51°17' E 004°23'0 0.0
2016-Aug-27 11:33N 51°17' E 004°23'0 0.0
2016-Aug-27 10:33N 51°17' E 004°23'0 0.0
2016-Aug-27 09:33N 51°17' E 004°23'0 0.0
2016-Aug-27 08:33N 51°17' E 004°23'0 0.0
2016-Aug-27 07:33N 51°17' E 004°23'0 0.0
2016-Aug-27 06:33N 51°17' E 004°23'2 0.9
2016-Aug-27 04:34N 51°17' E 004°20'3 3.3
2016-Aug-27 03:34N 51°19' E 004°16'1010.3
2016-Aug-27 02:33N 51°24' E 004°02'1111.1
2016-Aug-27 01:33N 51°22' E 003°45'1110.9
2016-Aug-27 00:33N 51°29' E 003°30'1616.4
2016-Aug-26 23:33N 51°42' E 003°16'1111.3
2016-Aug-26 22:34N 51°53' E 003°18'1918.9
2016-Aug-26 21:33N 52°12' E 003°10'2120.6
2016-Aug-26 20:33N 52°27' E 002°48'4018.8
2016-Aug-26 18:24N 52°54' E 001°58'1416.2
2016-Aug-26 17:33N 53°02' E 001°39'6520.9
2016-Aug-26 14:27N 53°34' E 000°05'0 0.1
2016-Aug-26 13:33N 53°34' E 000°05'1110.9
2016-Aug-26 12:33N 53°38' W 000°12'0 0.0
2016-Aug-26 11:33N 53°38' W 000°12'0 0.0
2016-Aug-26 10:33N 53°38' W 000°12'0 0.0
2016-Aug-26 09:34N 53°38' W 000°12'0 0.0
2016-Aug-26 08:33N 53°38' W 000°12'0 0.0
2016-Aug-26 07:34N 53°38' W 000°12'0 0.0
2016-Aug-26 06:34N 53°38' W 000°12'0 0.0
2016-Aug-26 04:33N 53°38' W 000°12'0 0.0
2016-Aug-26 03:33N 53°38' W 000°12'0 0.1
2016-Aug-26 02:33N 53°38' W 000°12'6 6.3
2016-Aug-26 01:33N 53°36' W 000°02'6114.7
2016-Aug-25 21:25N 53°08' E 001°28'1720.2
2016-Aug-25 20:33N 52°57' E 001°51'9818.8
2016-Aug-25 15:21N 51°60' E 004°02'5 0.4
2016-Aug-25 03:30N 51°58' E 004°08'9812.3
2016-Aug-24 19:32N 52°54' E 001°56'1212.6
2016-Aug-24 18:33N 53°01' E 001°40'6312.7
2016-Aug-24 13:33N 53°33' E 000°08'1312.5
2016-Aug-24 12:33N 53°38' W 000°12'0 0.1
2016-Aug-24 11:33N 53°38' W 000°12'0 0.0
2016-Aug-24 10:33N 53°38' W 000°12'0 0.0
2016-Aug-24 09:33N 53°38' W 000°12'0 0.0
2016-Aug-24 08:33N 53°38' W 000°12'0 0.0
2016-Aug-24 07:34N 53°38' W 000°12'0 0.0
2016-Aug-24 06:33N 53°38' W 000°12'0 0.0
2016-Aug-24 04:33N 53°38' W 000°12'0 0.0
2016-Aug-24 03:34N 53°38' W 000°12'0 0.2
2016-Aug-24 02:33N 53°38' W 000°12'5 5.4
2016-Aug-24 01:33N 53°37' W 000°03'1312.8
2016-Aug-24 00:33N 53°33' E 000°18'3215.6
2016-Aug-23 22:31N 53°18' E 001°05'1515.0
2016-Aug-23 21:30N 53°09' E 001°25'1415.4
2016-Aug-23 20:33N 52°60' E 001°44'10319.2
2016-Aug-23 15:13N 51°60' E 004°01'7 0.6
2016-Aug-23 04:33N 51°57' E 004°11'17410.8
2016-Aug-22 12:33N 53°33' E 000°11'1414.1
2016-Aug-22 11:33N 53°38' W 000°10'1 0.9
2016-Aug-22 10:33N 53°38' W 000°12'0 0.0
2016-Aug-22 09:33N 53°38' W 000°12'0 0.0
2016-Aug-22 08:33N 53°38' W 000°12'0 0.0
2016-Aug-22 07:34N 53°38' W 000°12'0 0.0
2016-Aug-22 06:33N 53°38' W 000°12'0 0.0
2016-Aug-22 05:33N 53°38' W 000°12'0 0.0
2016-Aug-22 04:33N 53°38' W 000°12'0 0.0
2016-Aug-22 03:33N 53°38' W 000°12'0 0.0
2016-Aug-22 02:33N 53°38' W 000°12'0 0.0
2016-Aug-22 01:33N 53°38' W 000°12'0 0.0
2016-Aug-22 00:33N 53°38' W 000°12'0 0.0
2016-Aug-21 23:33N 53°38' W 000°12'0 0.3
2016-Aug-21 22:33N 53°38' W 000°11'10 9.6
2016-Aug-21 21:33N 53°35' E 000°04'  

Dump ship's entire track history